sensor_id;sensor_type;location;lat;lon;timestamp;temperature;humidity
4695;DHT22;2361;49.540;8.390;2023-04-15T00:01:38;9.00;99.90
4695;DHT22;2361;49.540;8.390;2023-04-15T00:04:05;9.00;99.90
4695;DHT22;2361;49.540;8.390;2023-04-15T00:06:32;9.00;99.90
4695;DHT22;2361;49.540;8.390;2023-04-15T00:08:59;8.90;99.90
4695;DHT22;2361;49.540;8.390;2023-04-15T00:11:26;8.90;99.90
4695;DHT22;2361;49.540;8.390;2023-04-15T00:13:53;8.80;99.90
4695;DHT22;2361;49.540;8.390;2023-04-15T00:16:20;8.80;99.90
4695;DHT22;2361;49.540;8.390;2023-04-15T00:18:47;8.80;99.90
4695;DHT22;2361;49.540;8.390;2023-04-15T00:21:14;8.80;99.90
4695;DHT22;2361;49.540;8.390;2023-04-15T00:23:41;8.70;99.90
4695;DHT22;2361;49.540;8.390;2023-04-15T00:26:08;8.60;99.90
4695;DHT22;2361;49.540;8.390;2023-04-15T00:28:35;8.60;99.90
4695;DHT22;2361;49.540;8.390;2023-04-15T00:31:02;8.60;99.90
4695;DHT22;2361;49.540;8.390;2023-04-15T00:33:29;8.60;99.90
4695;DHT22;2361;49.540;8.390;2023-04-15T00:35:57;8.50;99.90
4695;DHT22;2361;49.540;8.390;2023-04-15T00:38:24;8.50;99.90
4695;DHT22;2361;49.540;8.390;2023-04-15T00:40:51;8.40;99.90
4695;DHT22;2361;49.540;8.390;2023-04-15T00:43:18;8.40;99.90
4695;DHT22;2361;49.540;8.390;2023-04-15T00:45:45;8.40;99.90
4695;DHT22;2361;49.540;8.390;2023-04-15T00:48:13;8.50;99.90
4695;DHT22;2361;49.540;8.390;2023-04-15T00:50:40;8.40;99.90
4695;DHT22;2361;49.540;8.390;2023-04-15T00:53:07;8.40;99.90
4695;DHT22;2361;49.540;8.390;2023-04-15T00:55:34;8.40;99.90
4695;DHT22;2361;49.540;8.390;2023-04-15T00:58:01;8.50;99.90
4695;DHT22;2361;49.540;8.390;2023-04-15T01:00:29;8.40;99.90
4695;DHT22;2361;49.540;8.390;2023-04-15T01:02:56;8.40;99.90
4695;DHT22;2361;49.540;8.390;2023-04-15T01:05:23;8.40;99.90
4695;DHT22;2361;49.540;8.390;2023-04-15T01:07:50;8.30;99.90
4695;DHT22;2361;49.540;8.390;2023-04-15T01:10:17;8.30;99.90
4695;DHT22;2361;49.540;8.390;2023-04-15T01:12:44;8.20;99.90
4695;DHT22;2361;49.540;8.390;2023-04-15T01:15:11;8.20;99.90
4695;DHT22;2361;49.540;8.390;2023-04-15T01:17:38;8.20;99.90
4695;DHT22;2361;49.540;8.390;2023-04-15T01:20:06;8.20;99.90
4695;DHT22;2361;49.540;8.390;2023-04-15T01:22:36;8.10;99.90
4695;DHT22;2361;49.540;8.390;2023-04-15T01:25:11;8.10;99.90
4695;DHT22;2361;49.540;8.390;2023-04-15T01:27:45;8.00;99.90
4695;DHT22;2361;49.540;8.390;2023-04-15T01:30:11;8.00;99.90
4695;DHT22;2361;49.540;8.390;2023-04-15T01:32:38;8.00;99.90
4695;DHT22;2361;49.540;8.390;2023-04-15T01:35:05;8.00;99.90
4695;DHT22;2361;49.540;8.390;2023-04-15T01:37:33;8.00;99.90
4695;DHT22;2361;49.540;8.390;2023-04-15T01:40:00;8.00;99.90
4695;DHT22;2361;49.540;8.390;2023-04-15T01:42:27;8.00;99.90
4695;DHT22;2361;49.540;8.390;2023-04-15T01:44:54;7.90;99.90
4695;DHT22;2361;49.540;8.390;2023-04-15T01:47:21;7.90;99.90
4695;DHT22;2361;49.540;8.390;2023-04-15T01:49:48;7.90;99.90
4695;DHT22;2361;49.540;8.390;2023-04-15T01:52:20;7.80;99.90
4695;DHT22;2361;49.540;8.390;2023-04-15T01:54:49;7.80;99.90
4695;DHT22;2361;49.540;8.390;2023-04-15T01:57:16;7.80;99.90
4695;DHT22;2361;49.540;8.390;2023-04-15T01:59:43;7.80;99.90
4695;DHT22;2361;49.540;8.390;2023-04-15T02:02:10;7.70;99.90
4695;DHT22;2361;49.540;8.390;2023-04-15T02:04:38;7.70;99.90
4695;DHT22;2361;49.540;8.390;2023-04-15T02:07:05;7.70;99.90
4695;DHT22;2361;49.540;8.390;2023-04-15T02:09:32;7.70;99.90
4695;DHT22;2361;49.540;8.390;2023-04-15T02:11:59;7.70;99.90
4695;DHT22;2361;49.540;8.390;2023-04-15T02:14:26;7.70;99.90
4695;DHT22;2361;49.540;8.390;2023-04-15T02:16:53;7.60;99.90
4695;DHT22;2361;49.540;8.390;2023-04-15T02:19:20;7.60;99.90
4695;DHT22;2361;49.540;8.390;2023-04-15T02:21:47;7.60;99.90
4695;DHT22;2361;49.540;8.390;2023-04-15T02:24:14;7.50;99.90
4695;DHT22;2361;49.540;8.390;2023-04-15T02:26:41;7.50;99.90
4695;DHT22;2361;49.540;8.390;2023-04-15T02:29:08;7.50;99.90
4695;DHT22;2361;49.540;8.390;2023-04-15T02:31:35;7.50;99.90
4695;DHT22;2361;49.540;8.390;2023-04-15T02:34:06;7.40;99.90
4695;DHT22;2361;49.540;8.390;2023-04-15T02:36:33;7.40;99.90
4695;DHT22;2361;49.540;8.390;2023-04-15T02:39:00;7.30;99.90
4695;DHT22;2361;49.540;8.390;2023-04-15T02:41:28;7.30;99.90
4695;DHT22;2361;49.540;8.390;2023-04-15T02:43:55;7.30;99.90
4695;DHT22;2361;49.540;8.390;2023-04-15T02:46:22;7.30;99.90
4695;DHT22;2361;49.540;8.390;2023-04-15T02:48:49;7.30;99.90
4695;DHT22;2361;49.540;8.390;2023-04-15T02:51:19;7.30;99.90
4695;DHT22;2361;49.540;8.390;2023-04-15T02:53:47;7.30;99.90
4695;DHT22;2361;49.540;8.390;2023-04-15T02:56:15;7.20;99.90
4695;DHT22;2361;49.540;8.390;2023-04-15T02:58:43;7.30;99.90
4695;DHT22;2361;49.540;8.390;2023-04-15T03:01:11;7.30;99.90
4695;DHT22;2361;49.540;8.390;2023-04-15T03:03:38;7.20;99.90
4695;DHT22;2361;49.540;8.390;2023-04-15T03:06:05;7.10;99.90
4695;DHT22;2361;49.540;8.390;2023-04-15T03:08:32;7.10;99.90
4695;DHT22;2361;49.540;8.390;2023-04-15T03:10:59;7.10;99.90
4695;DHT22;2361;49.540;8.390;2023-04-15T03:13:28;7.10;99.90
4695;DHT22;2361;49.540;8.390;2023-04-15T03:15:55;7.10;99.90
4695;DHT22;2361;49.540;8.390;2023-04-15T03:18:22;7.00;99.90
4695;DHT22;2361;49.540;8.390;2023-04-15T03:20:49;7.00;99.90
4695;DHT22;2361;49.540;8.390;2023-04-15T03:23:16;7.00;99.90
4695;DHT22;2361;49.540;8.390;2023-04-15T03:25:43;7.00;99.90
4695;DHT22;2361;49.540;8.390;2023-04-15T03:28:11;7.00;99.90
4695;DHT22;2361;49.540;8.390;2023-04-15T03:30:38;7.10;99.90
4695;DHT22;2361;49.540;8.390;2023-04-15T03:33:05;7.00;99.90
4695;DHT22;2361;49.540;8.390;2023-04-15T03:35:32;7.00;99.90
4695;DHT22;2361;49.540;8.390;2023-04-15T03:37:59;7.00;99.90
4695;DHT22;2361;49.540;8.390;2023-04-15T03:40:26;7.00;99.90
4695;DHT22;2361;49.540;8.390;2023-04-15T03:42:53;7.00;99.90
4695;DHT22;2361;49.540;8.390;2023-04-15T03:45:20;6.90;99.90
4695;DHT22;2361;49.540;8.390;2023-04-15T03:47:47;6.90;99.90
4695;DHT22;2361;49.540;8.390;2023-04-15T03:50:15;6.90;99.90
4695;DHT22;2361;49.540;8.390;2023-04-15T03:52:43;6.90;99.90
4695;DHT22;2361;49.540;8.390;2023-04-15T03:55:10;6.90;99.90
4695;DHT22;2361;49.540;8.390;2023-04-15T03:57:37;6.90;99.90
4695;DHT22;2361;49.540;8.390;2023-04-15T04:00:05;7.00;99.90
4695;DHT22;2361;49.540;8.390;2023-04-15T04:02:33;7.00;99.90
4695;DHT22;2361;49.540;8.390;2023-04-15T04:05:00;7.00;99.90
4695;DHT22;2361;49.540;8.390;2023-04-15T04:07:27;6.90;99.90
4695;DHT22;2361;49.540;8.390;2023-04-15T04:09:58;6.90;99.90
4695;DHT22;2361;49.540;8.390;2023-04-15T04:12:25;6.90;99.90
4695;DHT22;2361;49.540;8.390;2023-04-15T04:14:52;6.90;99.90
4695;DHT22;2361;49.540;8.390;2023-04-15T04:17:19;6.90;99.90
4695;DHT22;2361;49.540;8.390;2023-04-15T04:19:46;6.90;99.90
4695;DHT22;2361;49.540;8.390;2023-04-15T04:22:13;6.80;99.90
4695;DHT22;2361;49.540;8.390;2023-04-15T04:24:39;6.70;99.90
4695;DHT22;2361;49.540;8.390;2023-04-15T04:27:06;6.70;99.90
4695;DHT22;2361;49.540;8.390;2023-04-15T04:29:34;6.70;99.90
4695;DHT22;2361;49.540;8.390;2023-04-15T04:32:01;6.70;99.90
4695;DHT22;2361;49.540;8.390;2023-04-15T04:34:28;6.80;99.90
4695;DHT22;2361;49.540;8.390;2023-04-15T04:36:55;6.80;99.90
4695;DHT22;2361;49.540;8.390;2023-04-15T04:39:22;6.80;99.90
4695;DHT22;2361;49.540;8.390;2023-04-15T04:41:49;6.80;99.90
4695;DHT22;2361;49.540;8.390;2023-04-15T04:44:17;6.90;99.90
4695;DHT22;2361;49.540;8.390;2023-04-15T04:46:44;6.90;99.90
4695;DHT22;2361;49.540;8.390;2023-04-15T04:49:11;6.80;99.90
4695;DHT22;2361;49.540;8.390;2023-04-15T04:51:38;6.80;99.90
4695;DHT22;2361;49.540;8.390;2023-04-15T04:54:05;6.80;99.90
4695;DHT22;2361;49.540;8.390;2023-04-15T04:56:32;6.80;99.90
4695;DHT22;2361;49.540;8.390;2023-04-15T04:59:00;6.90;99.90
4695;DHT22;2361;49.540;8.390;2023-04-15T05:01:27;6.90;99.90
4695;DHT22;2361;49.540;8.390;2023-04-15T05:03:54;6.80;99.90
4695;DHT22;2361;49.540;8.390;2023-04-15T05:06:22;6.90;99.90
4695;DHT22;2361;49.540;8.390;2023-04-15T05:08:49;6.90;99.90
4695;DHT22;2361;49.540;8.390;2023-04-15T05:11:15;6.90;99.90
4695;DHT22;2361;49.540;8.390;2023-04-15T05:13:42;6.90;99.90
4695;DHT22;2361;49.540;8.390;2023-04-15T05:16:09;6.90;99.90
4695;DHT22;2361;49.540;8.390;2023-04-15T05:18:36;6.90;99.90
4695;DHT22;2361;49.540;8.390;2023-04-15T05:21:03;6.80;99.90
4695;DHT22;2361;49.540;8.390;2023-04-15T05:23:31;6.80;99.90
4695;DHT22;2361;49.540;8.390;2023-04-15T05:25:58;6.90;99.90
4695;DHT22;2361;49.540;8.390;2023-04-15T05:28:25;7.10;99.90
4695;DHT22;2361;49.540;8.390;2023-04-15T05:30:53;7.30;99.90
4695;DHT22;2361;49.540;8.390;2023-04-15T05:33:20;7.60;99.90
4695;DHT22;2361;49.540;8.390;2023-04-15T05:35:47;8.00;99.90
4695;DHT22;2361;49.540;8.390;2023-04-15T05:38:14;8.30;99.90
4695;DHT22;2361;49.540;8.390;2023-04-15T05:40:41;8.70;99.90
4695;DHT22;2361;49.540;8.390;2023-04-15T05:43:08;9.00;99.90
4695;DHT22;2361;49.540;8.390;2023-04-15T05:45:35;9.40;99.90
4695;DHT22;2361;49.540;8.390;2023-04-15T05:48:01;9.70;99.90
4695;DHT22;2361;49.540;8.390;2023-04-15T05:50:28;10.00;99.90
4695;DHT22;2361;49.540;8.390;2023-04-15T05:52:56;10.20;99.90
4695;DHT22;2361;49.540;8.390;2023-04-15T05:55:23;10.40;99.90
4695;DHT22;2361;49.540;8.390;2023-04-15T05:57:49;10.60;99.90
4695;DHT22;2361;49.540;8.390;2023-04-15T06:00:16;10.90;99.90
4695;DHT22;2361;49.540;8.390;2023-04-15T06:02:43;11.10;99.90
4695;DHT22;2361;49.540;8.390;2023-04-15T06:05:11;11.30;99.90
4695;DHT22;2361;49.540;8.390;2023-04-15T06:07:39;11.80;99.90
4695;DHT22;2361;49.540;8.390;2023-04-15T06:10:06;12.30;99.90
4695;DHT22;2361;49.540;8.390;2023-04-15T06:12:34;12.80;99.90
4695;DHT22;2361;49.540;8.390;2023-04-15T06:15:01;13.40;99.90
4695;DHT22;2361;49.540;8.390;2023-04-15T06:17:29;13.90;99.90
4695;DHT22;2361;49.540;8.390;2023-04-15T06:19:56;14.40;98.80
4695;DHT22;2361;49.540;8.390;2023-04-15T06:22:23;14.90;97.80
4695;DHT22;2361;49.540;8.390;2023-04-15T06:24:50;15.60;96.20
4695;DHT22;2361;49.540;8.390;2023-04-15T06:27:18;16.20;94.60
4695;DHT22;2361;49.540;8.390;2023-04-15T06:29:45;16.80;93.20
4695;DHT22;2361;49.540;8.390;2023-04-15T06:32:12;17.70;91.20
4695;DHT22;2361;49.540;8.390;2023-04-15T06:34:39;18.50;87.50
4695;DHT22;2361;49.540;8.390;2023-04-15T06:37:06;19.30;83.40
4695;DHT22;2361;49.540;8.390;2023-04-15T06:39:33;20.10;79.30
4695;DHT22;2361;49.540;8.390;2023-04-15T06:42:00;20.60;75.70
4695;DHT22;2361;49.540;8.390;2023-04-15T06:44:27;20.20;74.10
4695;DHT22;2361;49.540;8.390;2023-04-15T06:46:54;19.80;74.50
4695;DHT22;2361;49.540;8.390;2023-04-15T06:49:22;20.00;75.10
4695;DHT22;2361;49.540;8.390;2023-04-15T06:51:49;20.60;72.80
4695;DHT22;2361;49.540;8.390;2023-04-15T06:54:17;21.20;71.00
4695;DHT22;2361;49.540;8.390;2023-04-15T06:56:44;22.10;68.80
4695;DHT22;2361;49.540;8.390;2023-04-15T06:59:11;22.70;66.60
4695;DHT22;2361;49.540;8.390;2023-04-15T07:01:41;22.90;65.10
4695;DHT22;2361;49.540;8.390;2023-04-15T07:04:08;22.80;64.30
4695;DHT22;2361;49.540;8.390;2023-04-15T07:06:35;22.40;64.70
4695;DHT22;2361;49.540;8.390;2023-04-15T07:09:02;21.80;65.40
4695;DHT22;2361;49.540;8.390;2023-04-15T07:11:31;20.50;67.50
4695;DHT22;2361;49.540;8.390;2023-04-15T07:13:58;19.70;69.80
4695;DHT22;2361;49.540;8.390;2023-04-15T07:16:25;18.90;71.90
4695;DHT22;2361;49.540;8.390;2023-04-15T07:18:54;18.60;73.70
4695;DHT22;2361;49.540;8.390;2023-04-15T07:21:21;18.40;75.00
4695;DHT22;2361;49.540;8.390;2023-04-15T07:23:49;18.40;76.40
4695;DHT22;2361;49.540;8.390;2023-04-15T07:26:16;18.40;75.60
4695;DHT22;2361;49.540;8.390;2023-04-15T07:28:43;18.30;76.50
4695;DHT22;2361;49.540;8.390;2023-04-15T07:31:12;18.00;77.50
4695;DHT22;2361;49.540;8.390;2023-04-15T07:33:39;17.80;78.80
4695;DHT22;2361;49.540;8.390;2023-04-15T07:36:06;17.70;79.70
4695;DHT22;2361;49.540;8.390;2023-04-15T07:38:34;17.60;80.70
4695;DHT22;2361;49.540;8.390;2023-04-15T07:41:01;17.70;81.10
4695;DHT22;2361;49.540;8.390;2023-04-15T07:43:28;17.60;81.50
4695;DHT22;2361;49.540;8.390;2023-04-15T07:45:55;17.70;81.60
4695;DHT22;2361;49.540;8.390;2023-04-15T07:48:22;17.90;81.20
4695;DHT22;2361;49.540;8.390;2023-04-15T07:50:49;17.90;80.60
4695;DHT22;2361;49.540;8.390;2023-04-15T07:53:16;17.90;80.10
4695;DHT22;2361;49.540;8.390;2023-04-15T07:55:43;17.90;80.20
4695;DHT22;2361;49.540;8.390;2023-04-15T07:58:10;17.80;80.50
4695;DHT22;2361;49.540;8.390;2023-04-15T08:00:37;17.80;81.30
4695;DHT22;2361;49.540;8.390;2023-04-15T08:03:04;17.70;81.60
4695;DHT22;2361;49.540;8.390;2023-04-15T08:05:31;17.70;81.80
4695;DHT22;2361;49.540;8.390;2023-04-15T08:07:58;17.90;81.80
4695;DHT22;2361;49.540;8.390;2023-04-15T08:10:25;17.90;81.80
4695;DHT22;2361;49.540;8.390;2023-04-15T08:12:53;18.00;81.20
4695;DHT22;2361;49.540;8.390;2023-04-15T08:15:20;18.00;80.30
4695;DHT22;2361;49.540;8.390;2023-04-15T08:17:47;17.80;80.90
4695;DHT22;2361;49.540;8.390;2023-04-15T08:20:14;17.80;81.70
4695;DHT22;2361;49.540;8.390;2023-04-15T08:22:42;18.20;80.00
4695;DHT22;2361;49.540;8.390;2023-04-15T08:25:09;19.10;78.40
4695;DHT22;2361;49.540;8.390;2023-04-15T08:27:36;20.20;75.20
4695;DHT22;2361;49.540;8.390;2023-04-15T08:30:04;21.40;73.20
4695;DHT22;2361;49.540;8.390;2023-04-15T08:32:31;22.50;70.50
4695;DHT22;2361;49.540;8.390;2023-04-15T08:34:58;23.50;67.10
4695;DHT22;2361;49.540;8.390;2023-04-15T08:37:26;24.00;65.60
4695;DHT22;2361;49.540;8.390;2023-04-15T08:39:55;24.00;64.70
4695;DHT22;2361;49.540;8.390;2023-04-15T08:42:31;23.90;64.50
4695;DHT22;2361;49.540;8.390;2023-04-15T08:45:03;22.90;64.80
4695;DHT22;2361;49.540;8.390;2023-04-15T08:47:32;22.20;66.20
4695;DHT22;2361;49.540;8.390;2023-04-15T08:50:03;21.80;67.70
4695;DHT22;2361;49.540;8.390;2023-04-15T08:52:30;21.70;67.50
4695;DHT22;2361;49.540;8.390;2023-04-15T08:54:59;21.50;68.40
4695;DHT22;2361;49.540;8.390;2023-04-15T08:57:28;21.40;68.50
4695;DHT22;2361;49.540;8.390;2023-04-15T08:59:55;21.40;69.20
4695;DHT22;2361;49.540;8.390;2023-04-15T09:02:24;21.30;69.60
4695;DHT22;2361;49.540;8.390;2023-04-15T09:04:54;21.20;69.40
4695;DHT22;2361;49.540;8.390;2023-04-15T09:07:22;20.80;68.60
4695;DHT22;2361;49.540;8.390;2023-04-15T09:09:49;20.50;70.60
4695;DHT22;2361;49.540;8.390;2023-04-15T09:12:17;20.40;71.00
4695;DHT22;2361;49.540;8.390;2023-04-15T09:14:45;20.60;70.90
4695;DHT22;2361;49.540;8.390;2023-04-15T09:17:18;21.10;70.20
4695;DHT22;2361;49.540;8.390;2023-04-15T09:19:46;22.10;69.30
4695;DHT22;2361;49.540;8.390;2023-04-15T09:22:14;23.70;66.20
4695;DHT22;2361;49.540;8.390;2023-04-15T09:24:41;24.90;64.20
4695;DHT22;2361;49.540;8.390;2023-04-15T09:27:08;25.80;62.20
4695;DHT22;2361;49.540;8.390;2023-04-15T09:29:36;27.10;61.00
4695;DHT22;2361;49.540;8.390;2023-04-15T09:34:38;28.80;55.90
4695;DHT22;2361;49.540;8.390;2023-04-15T09:37:05;29.10;54.40
4695;DHT22;2361;49.540;8.390;2023-04-15T09:42:17;28.10;52.70
4695;DHT22;2361;49.540;8.390;2023-04-15T09:44:50;26.90;54.20
4695;DHT22;2361;49.540;8.390;2023-04-15T09:47:28;25.90;55.40
4695;DHT22;2361;49.540;8.390;2023-04-15T09:49:57;25.20;56.30
4695;DHT22;2361;49.540;8.390;2023-04-15T09:52:26;25.80;56.40
4695;DHT22;2361;49.540;8.390;2023-04-15T09:54:56;25.80;56.60
4695;DHT22;2361;49.540;8.390;2023-04-15T09:57:24;25.50;56.30
4695;DHT22;2361;49.540;8.390;2023-04-15T09:59:51;24.90;56.90
4695;DHT22;2361;49.540;8.390;2023-04-15T10:02:18;25.00;56.70
4695;DHT22;2361;49.540;8.390;2023-04-15T10:04:49;24.90;56.30
4695;DHT22;2361;49.540;8.390;2023-04-15T10:07:19;24.40;57.30
4695;DHT22;2361;49.540;8.390;2023-04-15T10:09:48;23.60;58.70
4695;DHT22;2361;49.540;8.390;2023-04-15T10:12:16;22.50;60.60
4695;DHT22;2361;49.540;8.390;2023-04-15T10:14:48;21.20;61.60
4695;DHT22;2361;49.540;8.390;2023-04-15T10:17:21;20.50;62.60
4695;DHT22;2361;49.540;8.390;2023-04-15T10:19:52;20.10;63.60
4695;DHT22;2361;49.540;8.390;2023-04-15T10:22:22;19.80;64.90
4695;DHT22;2361;49.540;8.390;2023-04-15T10:24:49;20.00;65.50
4695;DHT22;2361;49.540;8.390;2023-04-15T10:27:17;20.10;66.20
4695;DHT22;2361;49.540;8.390;2023-04-15T10:29:44;19.90;66.60
4695;DHT22;2361;49.540;8.390;2023-04-15T10:32:12;19.30;67.00
4695;DHT22;2361;49.540;8.390;2023-04-15T10:34:40;19.10;67.40
4695;DHT22;2361;49.540;8.390;2023-04-15T10:37:09;18.90;67.30
4695;DHT22;2361;49.540;8.390;2023-04-15T10:39:39;18.70;67.10
4695;DHT22;2361;49.540;8.390;2023-04-15T10:42:15;18.60;68.80
4695;DHT22;2361;49.540;8.390;2023-04-15T10:44:48;18.70;68.30
4695;DHT22;2361;49.540;8.390;2023-04-15T10:47:20;19.00;69.20
4695;DHT22;2361;49.540;8.390;2023-04-15T10:49:50;19.00;69.20
4695;DHT22;2361;49.540;8.390;2023-04-15T10:52:23;18.90;69.40
4695;DHT22;2361;49.540;8.390;2023-04-15T10:55:02;18.80;68.90
4695;DHT22;2361;49.540;8.390;2023-04-15T10:57:40;18.70;69.40
4695;DHT22;2361;49.540;8.390;2023-04-15T11:05:18;18.40;70.70
4695;DHT22;2361;49.540;8.390;2023-04-15T11:07:50;18.30;70.80
4695;DHT22;2361;49.540;8.390;2023-04-15T11:18:15;18.00;69.20
4695;DHT22;2361;49.540;8.390;2023-04-15T11:20:50;17.90;70.10
4695;DHT22;2361;49.540;8.390;2023-04-15T11:26:07;17.50;71.80
4695;DHT22;2361;49.540;8.390;2023-04-15T11:28:35;17.40;73.10
4695;DHT22;2361;49.540;8.390;2023-04-15T11:31:06;17.20;70.90
4695;DHT22;2361;49.540;8.390;2023-04-15T11:33:36;17.00;72.40
4695;DHT22;2361;49.540;8.390;2023-04-15T11:36:04;17.00;72.20
4695;DHT22;2361;49.540;8.390;2023-04-15T11:38:33;17.10;71.80
4695;DHT22;2361;49.540;8.390;2023-04-15T11:41:00;17.10;69.90
4695;DHT22;2361;49.540;8.390;2023-04-15T11:43:26;16.90;70.50
4695;DHT22;2361;49.540;8.390;2023-04-15T11:45:59;16.70;71.50
4695;DHT22;2361;49.540;8.390;2023-04-15T11:48:28;16.60;71.80
4695;DHT22;2361;49.540;8.390;2023-04-15T11:51:04;16.50;72.20
4695;DHT22;2361;49.540;8.390;2023-04-15T11:53:50;16.40;72.20
4695;DHT22;2361;49.540;8.390;2023-04-15T11:56:22;16.50;71.80
4695;DHT22;2361;49.540;8.390;2023-04-15T11:58:57;16.60;71.40
4695;DHT22;2361;49.540;8.390;2023-04-15T12:01:35;16.60;69.90
4695;DHT22;2361;49.540;8.390;2023-04-15T12:04:12;16.60;70.20
4695;DHT22;2361;49.540;8.390;2023-04-15T12:06:40;16.60;70.60
4695;DHT22;2361;49.540;8.390;2023-04-15T12:09:12;16.60;70.20
4695;DHT22;2361;49.540;8.390;2023-04-15T12:11:50;16.60;70.10
4695;DHT22;2361;49.540;8.390;2023-04-15T12:16:52;16.60;68.90
4695;DHT22;2361;49.540;8.390;2023-04-15T12:19:34;16.60;68.60
4695;DHT22;2361;49.540;8.390;2023-04-15T12:22:10;16.60;69.00
4695;DHT22;2361;49.540;8.390;2023-04-15T12:24:38;16.60;69.60
4695;DHT22;2361;49.540;8.390;2023-04-15T12:27:08;16.60;68.50
4695;DHT22;2361;49.540;8.390;2023-04-15T12:29:38;16.50;63.90
4695;DHT22;2361;49.540;8.390;2023-04-15T12:34:39;16.30;62.90
4695;DHT22;2361;49.540;8.390;2023-04-15T12:37:11;16.30;62.90
4695;DHT22;2361;49.540;8.390;2023-04-15T12:39:41;16.10;62.70
4695;DHT22;2361;49.540;8.390;2023-04-15T12:42:10;16.00;62.20
4695;DHT22;2361;49.540;8.390;2023-04-15T12:44:38;15.90;61.80
4695;DHT22;2361;49.540;8.390;2023-04-15T12:47:06;16.00;61.10
4695;DHT22;2361;49.540;8.390;2023-04-15T12:49:34;15.80;60.60
4695;DHT22;2361;49.540;8.390;2023-04-15T12:52:02;15.80;60.20
4695;DHT22;2361;49.540;8.390;2023-04-15T12:54:30;15.70;61.00
4695;DHT22;2361;49.540;8.390;2023-04-15T12:56:58;15.70;60.50
4695;DHT22;2361;49.540;8.390;2023-04-15T12:59:25;15.80;61.10
4695;DHT22;2361;49.540;8.390;2023-04-15T13:01:52;15.70;60.60
4695;DHT22;2361;49.540;8.390;2023-04-15T13:04:20;15.90;60.90
4695;DHT22;2361;49.540;8.390;2023-04-15T13:06:47;15.80;61.00
4695;DHT22;2361;49.540;8.390;2023-04-15T13:09:15;15.70;61.40
4695;DHT22;2361;49.540;8.390;2023-04-15T13:11:42;15.50;63.20
4695;DHT22;2361;49.540;8.390;2023-04-15T13:14:09;15.50;64.00
4695;DHT22;2361;49.540;8.390;2023-04-15T13:16:39;15.50;64.50
4695;DHT22;2361;49.540;8.390;2023-04-15T13:19:07;15.50;65.50
4695;DHT22;2361;49.540;8.390;2023-04-15T13:21:34;15.50;65.40
4695;DHT22;2361;49.540;8.390;2023-04-15T13:24:02;15.40;66.30
4695;DHT22;2361;49.540;8.390;2023-04-15T13:26:30;15.40;67.10
4695;DHT22;2361;49.540;8.390;2023-04-15T13:28:57;15.20;67.70
4695;DHT22;2361;49.540;8.390;2023-04-15T13:31:25;15.20;68.60
4695;DHT22;2361;49.540;8.390;2023-04-15T13:33:52;15.20;69.10
4695;DHT22;2361;49.540;8.390;2023-04-15T13:36:19;15.30;69.40
4695;DHT22;2361;49.540;8.390;2023-04-15T13:38:46;15.40;69.70
4695;DHT22;2361;49.540;8.390;2023-04-15T13:41:16;15.50;69.40
4695;DHT22;2361;49.540;8.390;2023-04-15T13:43:43;15.50;69.90
4695;DHT22;2361;49.540;8.390;2023-04-15T13:46:11;15.60;70.20
4695;DHT22;2361;49.540;8.390;2023-04-15T13:48:38;15.60;70.30
4695;DHT22;2361;49.540;8.390;2023-04-15T13:51:08;15.60;70.90
4695;DHT22;2361;49.540;8.390;2023-04-15T13:53:35;15.60;71.20
4695;DHT22;2361;49.540;8.390;2023-04-15T13:56:06;15.60;71.20
4695;DHT22;2361;49.540;8.390;2023-04-15T13:58:34;15.70;71.90
4695;DHT22;2361;49.540;8.390;2023-04-15T14:01:02;15.80;72.20
4695;DHT22;2361;49.540;8.390;2023-04-15T14:03:31;15.90;71.50
4695;DHT22;2361;49.540;8.390;2023-04-15T14:06:00;15.90;72.50
4695;DHT22;2361;49.540;8.390;2023-04-15T14:08:27;15.90;76.30
4695;DHT22;2361;49.540;8.390;2023-04-15T14:10:54;15.80;78.10
4695;DHT22;2361;49.540;8.390;2023-04-15T14:13:21;15.70;79.60
4695;DHT22;2361;49.540;8.390;2023-04-15T14:15:47;15.60;80.90
4695;DHT22;2361;49.540;8.390;2023-04-15T14:18:14;15.40;81.90
4695;DHT22;2361;49.540;8.390;2023-04-15T14:20:41;15.20;83.50
4695;DHT22;2361;49.540;8.390;2023-04-15T14:23:08;15.00;85.50
4695;DHT22;2361;49.540;8.390;2023-04-15T14:25:35;14.80;86.60
4695;DHT22;2361;49.540;8.390;2023-04-15T14:28:04;14.80;88.40
4695;DHT22;2361;49.540;8.390;2023-04-15T14:30:31;14.70;90.40
4695;DHT22;2361;49.540;8.390;2023-04-15T14:32:59;14.60;92.50
4695;DHT22;2361;49.540;8.390;2023-04-15T14:35:26;14.50;94.50
4695;DHT22;2361;49.540;8.390;2023-04-15T14:37:53;14.40;96.50
4695;DHT22;2361;49.540;8.390;2023-04-15T14:40:21;14.50;98.50
4695;DHT22;2361;49.540;8.390;2023-04-15T14:42:48;14.60;99.50
4695;DHT22;2361;49.540;8.390;2023-04-15T14:45:15;14.60;99.90
4695;DHT22;2361;49.540;8.390;2023-04-15T14:47:43;14.60;99.90
4695;DHT22;2361;49.540;8.390;2023-04-15T14:50:10;14.50;99.90
4695;DHT22;2361;49.540;8.390;2023-04-15T14:52:37;14.50;99.90
4695;DHT22;2361;49.540;8.390;2023-04-15T14:57:33;14.40;99.90
4695;DHT22;2361;49.540;8.390;2023-04-15T15:00:00;14.20;99.90
4695;DHT22;2361;49.540;8.390;2023-04-15T15:02:27;14.20;99.90
4695;DHT22;2361;49.540;8.390;2023-04-15T15:05:04;14.10;99.90
4695;DHT22;2361;49.540;8.390;2023-04-15T15:07:31;13.90;99.90
4695;DHT22;2361;49.540;8.390;2023-04-15T15:09:58;13.80;99.90
4695;DHT22;2361;49.540;8.390;2023-04-15T15:12:25;13.70;99.90
4695;DHT22;2361;49.540;8.390;2023-04-15T15:14:54;13.70;99.90
4695;DHT22;2361;49.540;8.390;2023-04-15T15:17:21;13.70;99.90
4695;DHT22;2361;49.540;8.390;2023-04-15T15:19:48;13.70;99.90
4695;DHT22;2361;49.540;8.390;2023-04-15T15:22:15;13.70;99.90
4695;DHT22;2361;49.540;8.390;2023-04-15T15:24:44;13.60;99.90
4695;DHT22;2361;49.540;8.390;2023-04-15T15:27:10;13.50;99.90
4695;DHT22;2361;49.540;8.390;2023-04-15T15:29:37;13.40;99.90
4695;DHT22;2361;49.540;8.390;2023-04-15T15:32:04;13.30;99.90
4695;DHT22;2361;49.540;8.390;2023-04-15T15:34:31;13.30;99.90
4695;DHT22;2361;49.540;8.390;2023-04-15T15:36:59;13.30;99.90
4695;DHT22;2361;49.540;8.390;2023-04-15T15:39:26;13.30;99.90
4695;DHT22;2361;49.540;8.390;2023-04-15T15:41:53;13.20;99.90
4695;DHT22;2361;49.540;8.390;2023-04-15T15:44:20;13.20;99.90
4695;DHT22;2361;49.540;8.390;2023-04-15T15:46:49;13.00;99.90
4695;DHT22;2361;49.540;8.390;2023-04-15T15:49:16;13.00;99.90
4695;DHT22;2361;49.540;8.390;2023-04-15T15:51:43;13.00;99.90
4695;DHT22;2361;49.540;8.390;2023-04-15T15:54:11;13.00;99.90
4695;DHT22;2361;49.540;8.390;2023-04-15T15:56:38;12.80;99.90
4695;DHT22;2361;49.540;8.390;2023-04-15T15:59:05;12.80;99.90
4695;DHT22;2361;49.540;8.390;2023-04-15T16:01:32;12.80;99.90
4695;DHT22;2361;49.540;8.390;2023-04-15T16:03:59;12.80;99.90
4695;DHT22;2361;49.540;8.390;2023-04-15T16:06:26;12.80;99.90
4695;DHT22;2361;49.540;8.390;2023-04-15T16:08:54;12.70;99.90
4695;DHT22;2361;49.540;8.390;2023-04-15T16:11:21;12.70;99.90
4695;DHT22;2361;49.540;8.390;2023-04-15T16:13:48;12.80;99.90
4695;DHT22;2361;49.540;8.390;2023-04-15T16:16:15;12.80;99.90
4695;DHT22;2361;49.540;8.390;2023-04-15T16:18:42;12.80;99.90
4695;DHT22;2361;49.540;8.390;2023-04-15T16:21:09;12.80;99.90
4695;DHT22;2361;49.540;8.390;2023-04-15T16:23:36;12.80;99.90
4695;DHT22;2361;49.540;8.390;2023-04-15T16:26:03;12.80;99.90
4695;DHT22;2361;49.540;8.390;2023-04-15T16:28:30;12.90;99.90
4695;DHT22;2361;49.540;8.390;2023-04-15T16:30:57;12.90;99.90
4695;DHT22;2361;49.540;8.390;2023-04-15T16:33:25;12.80;99.90
4695;DHT22;2361;49.540;8.390;2023-04-15T16:35:52;12.80;99.90
4695;DHT22;2361;49.540;8.390;2023-04-15T16:38:19;12.70;99.90
4695;DHT22;2361;49.540;8.390;2023-04-15T16:40:46;12.60;99.90